Time;durP1;ratioP1;P1;durP2;ratioP2;P2;SDS_P1;SDS_P2;PMS_P1;PMS_P2;Temp;Humidity;BMP_temperature;BMP_pressure;BME280_temperature;BME280_humidity;BME280_pressure;Samples;Min_cycle;Max_cycle;Signal;HPM_P1;HPM_P2
2023/11/20 16:59:35;;;;;;;14.68;9.82;;;;;;;9.59;78.36;96225.28;4847247;29;20110;-81
2023/11/20 17:02:03;;;;;;;9.25;5.90;;;;;;;9.56;78.73;96223.03;4848422;29;20056;-82
2023/11/20 17:04:31;;;;;;;7.05;4.30;;;;;;;9.56;78.64;96225.66;4846389;29;20553;-86
2023/11/20 17:06:59;;;;;;;11.00;7.47;;;;;;;9.53;78.47;96218.19;4847960;29;20062;-81
2023/11/20 17:09:26;;;;;;;14.20;9.70;;;;;;;9.50;78.58;96221.97;4853431;29;20046;-85
2023/11/20 17:11:54;;;;;;;10.43;7.90;;;;;;;9.48;79.64;96214.34;4855207;29;20062;-89
2023/11/20 17:14:23;;;;;;;8.02;5.82;;;;;;;9.47;79.32;96212.75;4854777;29;20078;-87
2023/11/20 17:16:52;;;;;;;8.73;5.85;;;;;;;9.44;79.05;96213.09;4853903;29;20050;-87
2023/11/20 17:19:21;;;;;;;7.38;5.07;;;;;;;9.43;79.08;96224.50;4865472;29;20049;-79
2023/11/20 17:21:50;;;;;;;7.18;4.50;;;;;;;9.41;79.01;96217.88;4842337;29;20056;-80
2023/11/20 17:24:18;;;;;;;7.53;4.70;;;;;;;9.39;78.92;96225.06;4845067;29;20144;-79
2023/11/20 17:26:45;;;;;;;8.43;4.90;;;;;;;9.35;79.07;96224.59;4846738;29;20069;-81
2023/11/20 17:29:13;;;;;;;6.57;3.60;;;;;;;9.32;79.35;96209.38;4846689;29;20081;-80
2023/11/20 17:31:41;;;;;;;6.75;3.53;;;;;;;9.29;79.49;96214.91;4845797;29;20085;-83
2023/11/20 17:34:10;;;;;;;7.03;3.97;;;;;;;9.27;79.69;96217.72;4846938;29;20145;-81
2023/11/20 17:36:44;;;;;;;7.63;3.17;;;;;;;9.26;79.78;96204.88;4841694;29;20064;-82
2023/11/20 17:39:15;;;;;;;3.17;2.50;;;;;;;9.24;79.94;96204.25;4845135;29;20504;-83
2023/11/20 17:41:43;;;;;;;3.28;2.15;;;;;;;9.20;79.81;96200.41;4846184;29;20492;-81
2023/11/20 17:44:11;;;;;;;5.20;2.40;;;;;;;9.18;79.88;96208.41;4845534;29;20080;-80
2023/11/20 17:46:43;;;;;;;3.75;2.42;;;;;;;9.22;82.96;96203.63;4853696;29;20054;-90
2023/11/20 17:49:12;;;;;;;7.23;2.70;;;;;;;9.24;81.42;96196.44;4846884;29;20062;-90
2023/11/20 17:51:40;;;;;;;6.90;2.70;;;;;;;9.24;80.26;96192.03;4856215;29;20390;-89
2023/11/20 17:54:11;;;;;;;7.07;5.05;;;;;;;9.24;80.27;96201.66;4855167;29;20053;-89
2023/11/20 17:56:42;;;;;;;11.52;4.05;;;;;;;9.25;79.86;96208.50;4854305;29;20046;-88
2023/11/20 17:59:15;;;;;;;8.80;3.75;;;;;;;9.28;82.61;96205.50;4852667;29;20084;-89
2023/11/20 18:01:43;;;;;;;7.43;4.43;;;;;;;9.33;82.77;96210.97;4854515;29;20214;-90
2023/11/20 18:04:12;;;;;;;7.30;3.88;;;;;;;9.36;82.70;96202.81;4853310;29;20584;-89
2023/11/20 18:06:40;;;;;;;14.23;10.43;;;;;;;9.41;82.87;96197.84;4854530;29;20117;-89
2023/11/20 18:09:09;;;;;;;8.25;5.18;;;;;;;9.43;81.74;96195.06;4856792;29;20095;-88
2023/11/20 18:11:37;;;;;;;5.28;4.50;;;;;;;9.42;80.84;96199.47;4855122;29;20079;-87
2023/11/20 18:14:05;;;;;;;8.13;4.88;;;;;;;9.43;80.05;96195.88;4853845;29;20113;-89
2023/11/20 18:16:33;;;;;;;11.13;6.15;;;;;;;9.44;82.25;96192.25;4853030;29;20077;-90
2023/11/20 18:19:00;;;;;;;13.00;8.13;;;;;;;9.47;81.45;96202.31;4853799;29;20050;-86
2023/11/20 18:21:30;;;;;;;12.18;6.80;;;;;;;9.46;79.83;96200.69;4855130;29;20050;-87
2023/11/20 18:23:58;;;;;;;11.45;6.80;;;;;;;9.44;79.19;96197.47;4853227;29;20064;-88
2023/11/20 18:26:26;;;;;;;8.88;5.90;;;;;;;9.41;79.46;96192.63;4852894;29;20054;-84
2023/11/20 18:28:56;;;;;;;8.45;5.43;;;;;;;9.41;79.21;96197.84;4852760;29;20066;-85
2023/11/20 18:31:25;;;;;;;9.70;5.50;;;;;;;9.39;78.72;96193.81;4853616;29;20077;-84
2023/11/20 18:33:53;;;;;;;9.50;5.20;;;;;;;9.36;78.68;96197.59;4852728;29;20060;-85
2023/11/20 18:36:20;;;;;;;7.50;4.80;;;;;;;9.36;80.47;96189.78;4852759;29;20107;-88
2023/11/20 18:38:49;;;;;;;12.30;6.65;;;;;;;9.37;79.99;96194.00;4853457;29;20424;-88
2023/11/20 18:41:18;;;;;;;12.13;6.63;;;;;;;9.37;78.67;96191.38;4853179;29;20190;-90
2023/11/20 18:43:46;;;;;;;18.35;9.43;;;;;;;9.38;78.40;96187.81;4851612;29;20081;-84
2023/11/20 18:46:18;;;;;;;11.93;6.00;;;;;;;9.40;80.48;96185.84;4851703;29;20066;-86
2023/11/20 18:48:47;;;;;;;13.27;7.18;;;;;;;9.43;80.10;96190.66;4844929;29;20046;-85
2023/11/20 18:51:14;;;;;;;9.27;5.93;;;;;;;9.45;80.41;96188.69;4851351;29;20080;-88
2023/11/20 18:53:45;;;;;;;11.13;5.60;;;;;;;9.46;80.78;96186.88;4851178;29;20061;-90
2023/11/20 18:56:15;;;;;;;8.30;5.38;;;;;;;9.44;78.93;96186.25;4851970;29;20501;-87
2023/11/20 18:58:44;;;;;;;5.43;4.00;;;;;;;9.43;78.23;96195.88;4851237;29;20050;-83
2023/11/20 19:01:12;;;;;;;7.15;4.57;;;;;;;9.49;81.76;96195.13;4850804;29;20073;-87
2023/11/20 19:03:40;;;;;;;7.10;4.55;;;;;;;9.54;82.06;96191.19;4851533;29;20118;-86
2023/11/20 19:06:08;;;;;;;5.07;3.38;;;;;;;9.57;81.69;96194.19;4851786;29;20589;-83
2023/11/20 19:08:36;;;;;;;4.15;2.55;;;;;;;9.60;79.98;96206.88;4851253;29;20136;-84
2023/11/20 19:11:04;;;;;;;5.55;2.50;;;;;;;9.60;79.52;96191.25;4849657;29;20046;-89
2023/11/20 19:13:33;;;;;;;3.65;2.15;;;;;;;9.64;79.85;96207.28;4852275;29;20133;-89
2023/11/20 19:16:01;;;;;;;4.28;2.10;;;;;;;9.69;80.95;96210.16;4851442;29;20053;-89
2023/11/20 19:18:29;;;;;;;2.53;1.30;;;;;;;9.70;80.56;96207.34;4853283;29;20057;-90
2023/11/20 19:20:57;;;;;;;2.17;1.38;;;;;;;9.73;81.53;96208.81;4851952;29;20088;-89
2023/11/20 19:23:25;;;;;;;3.15;1.45;;;;;;;9.75;83.32;96206.81;4854043;29;20054;-88
2023/11/20 19:25:52;;;;;;;5.18;2.25;;;;;;;9.78;84.11;96214.25;4853678;29;20085;-84
2023/11/20 19:28:20;;;;;;;3.53;2.13;;;;;;;9.81;84.06;96210.47;4852541;29;20088;-90
2023/11/20 19:30:50;;;;;;;5.00;2.40;;;;;;;9.81;85.55;96207.84;4856594;29;20034;-80
2023/11/20 19:33:18;;;;;;;4.45;1.45;;;;;;;9.83;85.64;96214.47;4856118;29;20053;-82
2023/11/20 19:35:46;;;;;;;3.72;1.38;;;;;;;9.81;84.72;96213.88;4843467;29;20125;-81
2023/11/20 19:38:14;;;;;;;2.05;1.25;;;;;;;9.81;85.76;96200.84;4842781;29;20132;-81
2023/11/20 19:40:41;;;;;;;4.15;1.33;;;;;;;9.81;86.36;96211.25;4843276;29;20138;-79
2023/11/20 19:43:10;;;;;;;3.97;1.60;;;;;;;9.80;85.01;96204.44;4843742;29;20060;-83
2023/11/20 19:45:38;;;;;;;4.97;1.77;;;;;;;9.82;85.83;96199.84;4843789;29;20103;-80
2023/11/20 19:48:09;;;;;;;3.78;1.67;;;;;;;9.83;85.83;96206.66;4843467;29;20133;-83
2023/11/20 19:50:36;;;;;;;5.53;1.50;;;;;;;9.82;86.18;96206.88;4844946;29;20054;-86
2023/11/20 19:53:05;;;;;;;5.03;1.83;;;;;;;9.78;85.37;96206.44;4848643;29;20050;-84
2023/11/20 19:55:33;;;;;;;4.63;2.30;;;;;;;9.75;83.29;96203.38;4847558;29;20137;-82
2023/11/20 19:58:01;;;;;;;4.65;2.42;;;;;;;9.70;81.90;96201.34;4848927;29;20061;-83
2023/11/20 20:00:30;;;;;;;4.82;1.67;;;;;;;9.69;82.01;96203.16;4848510;29;20490;-86
2023/11/20 20:02:58;;;;;;;3.90;1.75;;;;;;;9.67;81.34;96202.53;4848338;29;20046;-82
2023/11/20 20:05:28;;;;;;;4.30;1.75;;;;;;;9.70;83.89;96203.94;4848798;29;20068;-82
2023/11/20 20:07:58;;;;;;;4.05;1.70;;;;;;;9.71;84.33;96187.34;4847352;29;20081;-80
2023/11/20 20:10:26;;;;;;;3.10;1.20;;;;;;;9.72;84.63;96188.94;4846932;29;20114;-86
2023/11/20 20:12:53;;;;;;;3.58;1.65;;;;;;;9.67;82.44;96180.88;4846065;29;20558;-86
2023/11/20 20:15:23;;;;;;;3.85;1.85;;;;;;;9.64;81.04;96178.63;4843895;29;20072;-77
2023/11/20 20:17:52;;;;;;;3.70;1.80;;;;;;;9.65;81.69;96178.47;4845681;29;20137;-87
2023/11/20 20:20:23;;;;;;;3.60;1.75;;;;;;;9.68;81.27;96174.66;4849162;29;20050;-87
2023/11/20 20:23:00;;;;;;;7.68;4.38;;;;;;;9.65;79.46;96164.63;4854981;29;20133;-88
2023/11/20 20:25:30;;;;;;;;;;;;;;;9.62;78.77;96157.19;4854406;29;20062;-87
2023/11/20 20:28:02;;;;;;;6.22;2.35;;;;;;;9.54;78.69;96159.94;4852522;29;20045;-87
2023/11/20 20:30:34;;;;;;;3.15;1.88;;;;;;;9.46;78.19;96159.03;4853842;29;20058;-89
2023/11/20 20:33:08;;;;;;;2.70;2.00;;;;;;;9.40;77.96;96154.59;4853229;29;20046;-88
2023/11/20 20:35:39;;;;;;;7.22;3.22;;;;;;;9.39;77.85;96155.56;4852839;29;20140;-88
2023/11/20 20:38:12;;;;;;;7.28;3.30;;;;;;;9.40;80.90;96159.81;4852256;29;20085;-88
2023/11/20 20:40:48;;;;;;;11.07;5.32;;;;;;;9.38;79.53;96151.38;4854131;29;20061;-84
2023/11/20 20:43:22;;;;;;;8.35;4.00;;;;;;;9.38;82.22;96150.53;4852278;29;20058;-90
2023/11/20 20:46:05;;;;;;;13.15;7.53;;;;;;;9.39;79.79;96147.75;4852127;29;20117;-88
2023/11/20 20:48:44;;;;;;;15.55;7.32;;;;;;;9.37;79.48;96154.94;4852301;29;20054;-83
2023/11/20 20:51:19;;;;;;;13.48;6.70;;;;;;;9.34;79.70;96157.13;4854269;29;20062;-83
2023/11/20 20:53:59;;;;;;;12.55;5.70;;;;;;;9.32;79.90;96162.50;4854216;29;20150;-89
2023/11/20 20:56:28;;;;;;;7.97;3.70;;;;;;;9.32;79.04;96159.91;4853107;29;20062;-91
2023/11/20 20:58:57;;;;;;;9.30;4.05;;;;;;;9.31;78.20;96160.09;4853719;29;20049;-91
2023/11/20 21:01:27;;;;;;;4.45;2.20;;;;;;;9.31;77.78;96155.69;4855385;29;20061;-90
2023/11/20 21:04:00;;;;;;;4.60;2.60;;;;;;;9.33;80.28;96166.72;4866255;29;20061;-86
2023/11/20 21:06:28;;;;;;;6.05;2.30;;;;;;;9.36;79.23;96165.53;4861644;29;20089;-89
2023/11/20 21:08:59;;;;;;;6.05;2.20;;;;;;;9.32;77.97;96156.50;4854204;29;20050;-91
2023/11/20 21:11:33;;;;;;;4.22;1.95;;;;;;;9.30;77.76;96154.09;4854093;29;20574;-94
2023/11/20 21:14:01;;;;;;;2.50;1.85;;;;;;;9.28;77.53;96156.06;4853336;29;20056;-91
2023/11/20 21:16:32;;;;;;;8.35;2.33;;;;;;;9.23;77.27;96159.22;4854879;29;20110;-91
2023/11/20 21:19:09;;;;;;;7.93;2.08;;;;;;;9.22;77.64;96157.59;4855923;29;20050;-90
2023/11/20 21:21:43;;;;;;;3.10;1.70;;;;;;;9.19;77.28;96152.75;4861270;29;20046;-94
2023/11/20 21:24:21;;;;;;;6.72;2.13;;;;;;;9.15;77.48;96159.31;4862970;29;20058;-89
2023/11/20 21:26:50;;;;;;;2.70;1.90;;;;;;;9.13;77.77;96147.50;4860700;29;20054;-94
2023/11/20 21:29:26;;;;;;;5.35;2.70;;;;;;;9.10;77.76;96145.28;4860686;29;20061;-91
2023/11/20 21:31:56;;;;;;;8.18;3.65;;;;;;;9.07;78.50;96149.00;4861825;29;20057;-92
2023/11/20 21:34:34;;;;;;;7.00;3.58;;;;;;;9.04;80.08;96152.78;4862613;29;20061;-93
2023/11/20 21:37:09;;;;;;;4.40;2.90;;;;;;;9.10;82.95;96138.25;4856120;29;20054;-91
2023/11/20 21:39:44;;;;;;;6.38;3.53;;;;;;;9.15;85.00;96137.72;4861191;29;20061;-93
2023/11/20 21:42:13;;;;;;;6.28;3.95;;;;;;;9.20;83.52;96133.53;4846211;29;20073;-92
2023/11/20 21:44:43;;;;;;;7.25;4.28;;;;;;;9.23;81.72;96132.41;4844094;29;20042;-87
2023/11/20 21:47:11;;;;;;;8.13;4.20;;;;;;;9.18;80.14;96126.91;4839725;29;20050;-85
2023/11/20 21:49:40;;;;;;;7.13;3.38;;;;;;;9.15;79.50;96140.31;4833923;29;20062;-86
2023/11/20 21:52:11;;;;;;;6.30;2.78;;;;;;;9.13;79.33;96137.88;4834731;29;20109;-87
2023/11/20 21:54:39;;;;;;;4.68;2.80;;;;;;;9.11;78.69;96131.25;4834457;29;20149;-87
2023/11/20 21:57:09;;;;;;;9.07;3.33;;;;;;;9.07;78.04;96139.44;4834446;29;20057;-84
2023/11/20 21:59:38;;;;;;;6.00;2.95;;;;;;;9.04;78.13;96139.78;4836422;29;20057;-87
2023/11/20 22:02:10;;;;;;;5.45;2.78;;;;;;;9.01;78.03;96145.38;4837794;29;20051;-89
2023/11/20 22:04:39;;;;;;;8.70;2.63;;;;;;;8.97;78.33;96149.31;4837717;29;20149;-87
2023/11/20 22:07:08;;;;;;;4.63;2.40;;;;;;;8.96;79.49;96152.09;4838153;29;20050;-90
2023/11/20 22:09:35;;;;;;;4.80;1.88;;;;;;;8.98;81.17;96150.91;4838446;29;20054;-89
2023/11/20 22:12:04;;;;;;;6.45;2.40;;;;;;;8.98;80.37;96156.13;4838526;29;20117;-90
2023/11/20 22:14:41;;;;;;;2.53;2.00;;;;;;;8.99;82.23;96160.34;4836225;29;20081;-89
2023/11/20 22:17:12;;;;;;;2.83;2.03;;;;;;;9.02;81.42;96159.19;4836400;29;20433;-84
2023/11/20 22:19:42;;;;;;;5.22;2.33;;;;;;;9.01;80.50;96168.78;4836475;29;20050;-85
2023/11/20 22:22:10;;;;;;;3.67;1.85;;;;;;;9.01;81.82;96166.19;4836857;29;20073;-85
2023/11/20 22:24:40;;;;;;;2.78;1.80;;;;;;;9.07;84.07;96175.88;4837431;29;20050;-90
2023/11/20 22:27:11;;;;;;;4.32;2.28;;;;;;;9.11;85.08;96175.47;4841785;29;20054;-89
2023/11/20 22:29:42;;;;;;;5.40;2.75;;;;;;;9.12;86.48;96177.09;4840872;29;20073;-90
2023/11/20 22:32:10;;;;;;;4.30;1.80;;;;;;;9.16;86.82;96180.94;4839904;29;20084;-91
2023/11/20 22:34:38;;;;;;;5.05;2.15;;;;;;;9.18;87.12;96171.16;4840331;29;20063;-89
2023/11/20 22:37:07;;;;;;;5.75;1.80;;;;;;;9.20;87.23;96171.78;4840129;29;20055;-90
2023/11/20 22:39:35;;;;;;;5.32;1.52;;;;;;;9.19;86.74;96175.38;4839380;29;20231;-91
2023/11/20 22:42:04;;;;;;;7.97;2.55;;;;;;;9.22;88.63;96175.00;4839544;29;20054;-90
2023/11/20 22:44:36;;;;;;;5.97;2.22;;;;;;;9.25;87.89;96172.84;4839212;29;20047;-88
2023/11/20 22:47:05;;;;;;;5.53;1.38;;;;;;;9.21;85.77;96165.59;4838411;29;20054;-88
2023/11/20 22:49:33;;;;;;;4.78;1.77;;;;;;;9.17;83.97;96170.34;4838096;29;20113;-87
2023/11/20 22:52:01;;;;;;;7.20;2.40;;;;;;;9.17;85.29;96169.56;4837854;29;20114;-88
2023/11/20 22:54:31;;;;;;;5.95;2.65;;;;;;;9.13;83.85;96165.69;4837676;29;20121;-90
2023/11/20 22:56:59;;;;;;;3.28;1.95;;;;;;;9.12;83.40;96161.47;4837659;29;20054;-87
2023/11/20 22:59:30;;;;;;;3.50;1.58;;;;;;;9.09;81.75;96162.66;4884575;23;20067;-80
2023/11/20 23:02:00;;;;;;;5.00;1.38;;;;;;;9.09;81.45;96162.66;4866866;29;20062;-80
2023/11/20 23:04:30;;;;;;;3.40;1.65;;;;;;;9.10;83.61;96166.09;4866682;29;20072;-79
2023/11/20 23:07:01;;;;;;;3.65;1.45;;;;;;;9.09;82.65;96162.66;4866947;29;20038;-79
2023/11/20 23:09:33;;;;;;;5.88;2.70;;;;;;;9.08;84.00;96167.06;4866571;29;20194;-80
2023/11/20 23:12:03;;;;;;;2.88;1.58;;;;;;;9.10;85.35;96158.28;4866850;29;20038;-80
2023/11/20 23:14:33;;;;;;;8.02;2.67;;;;;;;9.10;85.66;96158.28;4866581;29;20054;-80
2023/11/20 23:17:05;;;;;;;1.38;1.13;;;;;;;9.08;84.06;96161.84;4866415;29;20080;-79
2023/11/20 23:19:37;;;;;;;5.75;1.60;;;;;;;9.06;82.16;96152.63;4866524;29;20048;-79
2023/11/20 23:22:07;;;;;;;4.75;1.27;;;;;;;9.05;83.27;96158.78;4866680;29;20074;-80
2023/11/20 23:24:36;;;;;;;3.13;1.27;;;;;;;9.05;85.43;96151.81;4866432;29;20038;-80
2023/11/20 23:27:08;;;;;;;4.55;1.88;;;;;;;9.06;84.43;96152.63;4866620;29;20041;-80
2023/11/20 23:29:37;;;;;;;3.40;1.10;;;;;;;9.02;83.37;96149.56;4850982;29;20054;-81
2023/11/20 23:32:07;;;;;;;4.60;1.30;;;;;;;9.03;83.33;96151.19;4866187;29;20060;-80
2023/11/20 23:34:38;;;;;;;4.90;1.20;;;;;;;8.99;82.44;96152.53;4866076;29;20069;-80
2023/11/20 23:37:09;;;;;;;4.60;1.40;;;;;;;9.02;84.13;96151.38;4866420;29;20034;-80
2023/11/20 23:39:39;;;;;;;2.60;0.98;;;;;;;9.01;82.85;96160.97;4866128;29;20038;-80
2023/11/20 23:42:09;;;;;;;3.83;1.23;;;;;;;9.01;82.61;96166.19;4866264;29;20058;-79
2023/11/20 23:44:39;;;;;;;2.65;1.50;;;;;;;8.99;83.64;96155.16;4850008;29;20042;-80
2023/11/20 23:47:10;;;;;;;3.47;1.40;;;;;;;9.02;84.63;96151.38;4866128;29;20034;-80
2023/11/20 23:49:41;;;;;;;4.22;1.10;;;;;;;8.99;82.30;96154.34;4866207;29;20041;-80
2023/11/20 23:52:10;;;;;;;4.47;1.13;;;;;;;8.95;81.55;96151.28;4866134;29;20042;-79
2023/11/20 23:54:40;;;;;;;2.65;0.75;;;;;;;9.00;84.07;96151.53;4866202;29;20054;-79
2023/11/20 23:57:09;;;;;;;1.25;0.77;;;;;;;9.03;84.36;96143.41;4865642;29;20113;-80
2023/11/20 23:59:39;;;;;;;3.85;0.93;;;;;;;9.05;85.08;96146.63;4865821;29;20038;-79
